KBDG

Blanding Municipal Airport

Blanding, Utah, USA
METAR KBDG 221755Z AUTO 21008G14KT 10SM 20/M03 A3022 RMK AO1 T01971030 10200 20050
Observed Flight Rules
Apr-22 @ 17:55 UTC (24 minutes ago)
Wind Visibility
210° at 8 knots
 Gusting to 14 knots
10 miles
Temperatures Readings
Current 20°C / 68°F
Dewpoint -3°C / 27°F
Humidity 21%
Altimeter 30.22" Hg
Pressure 1023 hPa
Elevation 1788
METAR KBDG 221755Z AUTO 21008G14KT 10SM 20/M03 A3022 RMK AO1 T01971030 10200 20050
Observed Flight Rules
Apr-22 @ 17:55 UTC
(24 minutes ago)
Wind Visibility
210° at 8 knots
 Gusting to 14 knots
10 miles
Temperature Dewpoint
20°C / 68°F -3°C / 27°F
Humidity Altimeter Pressure
21% 30.22" Hg 1023 hPa